Thunder radar more information blitzortung!


Radar de pluja more information rain snow radar


Visita la nostra xarxa de llocs de meteo:

Template documentation
and downloads

And another site



No particular awareness of the weather is required.    There are no Weather-warnings

Pagina Historial Weather Underground text

Diari Resum Novembre 20, 2017 Unitats:  Mètric    Imperial   Tant
« Previous Dia
SegĂźent Dia »
Diari Setmana Mensual Anual Personalitzada
  Maxima: Minima: Media:
Temperatura: -17.8 °C -15.5 °C -11.5 °C
Punt de rosada: -17.8 °C -18.4 °C -16.4 °C
Humitat: Humidity % 45 % 55 %
Wind Speed: 0 km/h 0 km/h 3.9 km/h
RĂ fegues de vent: 0 km/h - -
Vent:- - South
Pression baro: 0 hPa 34567.7 hPa -
Precipitacions: 0 mm    
Historical Graphs
 
 
Dades de taula per Novembre 20, 2017
Temps Temperatura Punt de rosada Pression baro Vent Wind Speed RĂ fegues de vent Humitat Rainfall Rate (Hourly)
-17.8 °C -17.8 °C 0 hPa Calm     Humidity % 0 mm
00:04 -13.7 °C -17.4 °C 34669.3 hPa Calm     62 % 0 mm
00:10 -15.3 °C -18.2 °C 34669.3 hPa Calm   5.1 km/h 69 % 0 mm
00:20 -15.4 °C -18.3 °C 34669.3 hPa Calm   5.1 km/h 69 % 0 mm
00:30 -15.4 °C -18.3 °C 34635.4 hPa Calm   2.6 km/h 69 % 0 mm
00:40 -15.5 °C -18.4 °C 34635.4 hPa Calm   5.1 km/h 69 % 0 mm
00:50 -15.4 °C -18.3 °C 34635.4 hPa WNW 2.6 km/h 5.1 km/h 69 % 0 mm
01:00 -15.4 °C -18.3 °C 34669.3 hPa Calm   5.1 km/h 69 % 0 mm
01:30 -15.4 °C -18.2 °C 34669.3 hPa NW 2.6 km/h 5.1 km/h 70 % 0 mm
01:40 -15.4 °C -18.2 °C 34635.4 hPa Calm   5.1 km/h 70 % 0 mm
01:50 -15.4 °C -18.1 °C 34635.4 hPa Calm   2.6 km/h 71 % 0 mm
02:00 -15.4 °C -18.1 °C 34635.4 hPa Calm   5.1 km/h 71 % 0 mm
02:10 -15.4 °C -18.2 °C 34635.4 hPa NNE 2.6 km/h 5.1 km/h 70 % 0 mm
02:20 -15.3 °C -18.1 °C 34635.4 hPa WNW 2.6 km/h 2.6 km/h 70 % 0 mm
02:30 -15.2 °C -17.8 °C 34669.3 hPa Calm   5.1 km/h 71 % 0 mm
02:40 -15 °C -17.8 °C 34635.4 hPa WSW 2.6 km/h 5.1 km/h 70 % 0 mm
02:50 -14.8 °C -17.6 °C 34635.4 hPa WSW 5.1 km/h 5.1 km/h 70 % 0 mm
03:00 -14.6 °C -17.4 °C 34669.3 hPa SW 2.6 km/h 5.1 km/h 70 % 0 mm
03:10 -14.3 °C -17.3 °C 34669.3 hPa SW 2.6 km/h 2.6 km/h 69 % 0 mm
03:30 -13.6 °C -16.8 °C 34669.3 hPa SSE 2.6 km/h 2.6 km/h 67 % 0 mm
03:40 -13.6 °C -16.8 °C 34669.3 hPa East 5.1 km/h 5.1 km/h 66 % 0 mm
03:50 -13.3 °C -16.7 °C 34669.3 hPa NE 2.6 km/h 5.1 km/h 65 % 0 mm
04:00 -12.9 °C -16.5 °C 34669.3 hPa NE 2.6 km/h 10.3 km/h 64 % 0 mm
04:10 -13 °C -16.7 °C 34669.3 hPa NE 5.1 km/h 7.7 km/h 63 % 0 mm
04:20 -12.5 °C -16.2 °C 34669.3 hPa Calm   5.1 km/h 63 % 0 mm
04:30 -12.2 °C -16.1 °C 34669.3 hPa ENE 2.6 km/h 5.1 km/h 62 % 0 mm
04:40 -11.8 °C -15.7 °C 34703.1 hPa ENE 2.6 km/h 5.1 km/h 62 % 0 mm
10:41 -11.4 °C -15.6 °C 34703.1 hPa ESE 6 km/h 6 km/h 60 % 0 mm
10:46 -11.4 °C -15.6 °C 34703.1 hPa East 6.8 km/h 6.8 km/h 60 % 0 mm
11:01 -11.3 °C -15.7 °C 34703.1 hPa ENE 6 km/h 6 km/h 59 % 0 mm
11:06 -11.3 °C -15.8 °C 34703.1 hPa NNE 6 km/h 6 km/h 58 % 0 mm
11:16 -11.2 °C -15.6 °C 34703.1 hPa NE 6 km/h 6 km/h 58 % 0 mm
11:21 -11 °C -15.4 °C 34703.1 hPa NNE 3.1 km/h 3.1 km/h 58 % 0 mm
11:36 -10.7 °C -15.3 °C 34703.1 hPa ENE 6.3 km/h 6.3 km/h 57 % 0 mm
11:46 -10.6 °C -15.2 °C 34703.1 hPa NE 6 km/h 6 km/h 57 % 0 mm
11:51 -10.6 °C -15.2 °C 34703.1 hPa ENE 6 km/h 6 km/h 57 % 0 mm
12:11 -10.2 °C -15 °C 34703.1 hPa NW 6.8 km/h 6.8 km/h 56 % 0 mm
12:16 -10.2 °C -14.9 °C 34703.1 hPa NNW 6 km/h 6 km/h 56 % 0 mm
12:21 -10 °C -14.8 °C 34669.3 hPa NNE 3.7 km/h   56 % 0 mm
12:26 -9.9 °C -14.8 °C 34669.3 hPa NNW 3.1 km/h   55 % 0 mm
12:31 -9.9 °C -14.9 °C 34669.3 hPa ENE 6.8 km/h 6.8 km/h 55 % 0 mm
12:36 -9.9 °C -15.1 °C 34635.4 hPa NE 6 km/h   54 % 0 mm
12:41 -9.9 °C -15 °C 34635.4 hPa NNE 6.8 km/h 6.8 km/h 54 % 0 mm
12:56 -9.8 °C -15.1 °C 34635.4 hPa East 9 km/h 9 km/h 53 % 0 mm
13:21 -9.4 °C -14.7 °C 34635.4 hPa NE 6.3 km/h   53 % 0 mm
13:36 -9.4 °C -14.9 °C 34635.4 hPa ENE 9 km/h 9 km/h 52 % 0 mm
13:41 -9.3 °C -14.8 °C 34635.4 hPa NNE 6.3 km/h 6.3 km/h 52 % 0 mm
13:51 -9.3 °C -14.9 °C 34635.4 hPa ESE 11.9 km/h 11.9 km/h 51 % 0 mm
13:56 -9.2 °C -14.8 °C 34635.4 hPa ENE 6 km/h 6 km/h 51 % 0 mm
14:01 -9.2 °C -14.8 °C 34635.4 hPa NNE 8.5 km/h 8.5 km/h 51 % 0 mm
14:06 -9.3 °C -14.9 °C 34635.4 hPa NNW 6 km/h 6 km/h 51 % 0 mm
14:11 -9.2 °C -14.9 °C 34635.4 hPa NE 6 km/h 6 km/h 50 % 0 mm
14:16 -9.2 °C -14.9 °C 34635.4 hPa East 6 km/h 6 km/h 50 % 0 mm
14:21 -9.1 °C -15.1 °C 34635.4 hPa ESE 15 km/h 15 km/h 49 % 0 mm
14:36 -8.8 °C -14.8 °C 34635.4 hPa ESE 6 km/h 6 km/h 49 % 0 mm
14:42 -8.9 °C -14.8 °C 34635.4 hPa East 6 km/h 6 km/h 49 % 0 mm
14:52 -8.9 °C -15.1 °C 34601.5 hPa ESE 9 km/h 9 km/h 48 % 0 mm
14:57 -8.9 °C -15 °C 34601.5 hPa ESE 9 km/h 9 km/h 48 % 0 mm
15:02 -8.8 °C -14.9 °C 34635.4 hPa SSE 3.1 km/h   48 % 0 mm
15:07 -8.8 °C -14.9 °C 34635.4 hPa NE 4.2 km/h 4.2 km/h 48 % 0 mm
15:12 -8.8 °C -15.1 °C 34635.4 hPa East 9 km/h 9 km/h 47 % 0 mm
15:17 -8.8 °C -15.1 °C 34635.4 hPa SE 9 km/h 9 km/h 47 % 0 mm
15:22 -8.8 °C -15.1 °C 34635.4 hPa ENE 6 km/h 6 km/h 47 % 0 mm
15:32 -8.6 °C -14.9 °C 34635.4 hPa SSE 3.1 km/h   47 % 0 mm
15:37 -8.6 °C -14.8 °C 34635.4 hPa Calm     48 % 0 mm
15:47 -8.7 °C -14.9 °C 34635.4 hPa East 3.1 km/h   47 % 0 mm
15:52 -8.6 °C -14.9 °C 34635.4 hPa East 4.2 km/h 4.2 km/h 47 % 0 mm
15:57 -8.6 °C -14.9 °C 34635.4 hPa Calm     47 % 0 mm
16:02 -8.6 °C -14.9 °C 34635.4 hPa NW 4.2 km/h 4.2 km/h 47 % 0 mm
16:12 -8.4 °C -14.7 °C 34635.4 hPa WSW 6 km/h 6 km/h 47 % 0 mm
16:27 -8.2 °C -14.7 °C 34635.4 hPa SW 6.3 km/h 6.3 km/h 46 % 0 mm
16:42 -8.2 °C -14.9 °C 34601.5 hPa SW 3.1 km/h   45 % 0 mm
16:47 -8.3 °C -15.1 °C 34601.5 hPa Calm     45 % 0 mm
16:52 -8.3 °C -15.1 °C 34601.5 hPa SW 3.1 km/h 3.1 km/h 45 % 0 mm
16:57 -8.3 °C -15.1 °C 34601.5 hPa SW 3.1 km/h 3.1 km/h 45 % 0 mm
17:02 -8.4 °C -14.8 °C 34635.4 hPa Calm     47 % 0 mm
17:07 -8.6 °C -14.8 °C 34635.4 hPa WSW 6 km/h 6 km/h 48 % 0 mm
17:17 -9.2 °C -15.3 °C 34635.4 hPa Calm     48 % 0 mm
17:27 -9.5 °C -15.6 °C 34635.4 hPa Calm     48 % 0 mm
17:32 -9.7 °C -15.7 °C 34635.4 hPa WSW 6 km/h 6 km/h 48 % 0 mm
17:37 -9.8 °C -15.9 °C 34635.4 hPa WSW 6 km/h 6 km/h 48 % 0 mm
17:47 -10.1 °C -16.1 °C 34635.4 hPa West 6 km/h 6 km/h 48 % 0 mm
17:52 -10.2 °C -16.2 °C 34635.4 hPa WSW 7.6 km/h 7.6 km/h 48 % 0 mm
17:57 -10.3 °C -16.3 °C 34635.4 hPa SW 9 km/h 9 km/h 48 % 0 mm
18:07 -10.4 °C -16.2 °C 34601.5 hPa SW 6.3 km/h 6.3 km/h 49 % 0 mm
18:12 -10.4 °C -16.3 °C 34601.5 hPa WSW 6 km/h 6 km/h 49 % 0 mm
18:17 -10.5 °C -16.3 °C 34601.5 hPa West 6 km/h 6 km/h 49 % 0 mm
18:22 -10.6 °C -16.4 °C 34601.5 hPa West 9 km/h 9 km/h 49 % 0 mm
18:27 -10.7 °C -16.5 °C 34601.5 hPa West 9 km/h 9 km/h 49 % 0 mm
18:32 -10.7 °C -16.5 °C 34601.5 hPa WSW 9 km/h 9 km/h 49 % 0 mm
18:37 -10.7 °C -16.6 °C 34601.5 hPa West 8 km/h 8 km/h 49 % 0 mm
18:42 -10.7 °C -16.6 °C 34601.5 hPa WSW 6.3 km/h 6.3 km/h 49 % 0 mm
18:47 -10.8 °C -16.6 °C 34601.5 hPa West 9 km/h 9 km/h 49 % 0 mm
18:57 -10.9 °C -16.7 °C 34601.5 hPa WSW 8.5 km/h 8.5 km/h 49 % 0 mm
19:02 -10.9 °C -16.6 °C 34601.5 hPa SW 6 km/h 6 km/h 50 % 0 mm
19:13 -11.1 °C -16.7 °C 34601.5 hPa WSW 6.3 km/h 6.3 km/h 50 % 0 mm
19:33 -11.3 °C -16.9 °C 34635.4 hPa SW 6 km/h 6 km/h 50 % 0 mm
19:38 -11.3 °C -16.9 °C 34635.4 hPa SW 3.7 km/h 3.7 km/h 50 % 0 mm
19:43 -11.4 °C -16.8 °C 34635.4 hPa Calm     51 % 0 mm
19:45 -11.4 °C -16.8 °C 34635.4 hPa Calm     51 % 0 mm
20:00 -11.6 °C -17 °C 34635.4 hPa Calm     51 % 0 mm
20:10 -11.4 °C -16.9 °C 34635.4 hPa WSW 6 km/h 6 km/h 51 % 0 mm
20:20 -11.6 °C -17 °C 34635.4 hPa Calm     51 % 0 mm
20:25 -11.6 °C -16.9 °C 34635.4 hPa Calm     52 % 0 mm
20:40 -11.9 °C -17.2 °C 34635.4 hPa Calm     52 % 0 mm
20:45 -12 °C -17.3 °C 34635.4 hPa Calm     52 % 0 mm
20:50 -12.1 °C -17.3 °C 34635.4 hPa Calm     52 % 0 mm
20:55 -12.1 °C -17.2 °C 34635.4 hPa Calm     53 % 0 mm
21:00 -12.2 °C -17.3 °C 34635.4 hPa WNW 3.7 km/h 3.7 km/h 53 % 0 mm
21:05 -12.1 °C -17.2 °C 34635.4 hPa SW 6 km/h 6 km/h 53 % 0 mm
21:16 -12.2 °C -17.3 °C 34635.4 hPa WSW 3.1 km/h   53 % 0 mm
21:31 -12.3 °C -17.4 °C 34669.3 hPa WSW 3.1 km/h   53 % 0 mm
21:36 -12.4 °C -17.4 °C 34635.4 hPa Calm     53 % 0 mm
21:41 -12.4 °C -17.5 °C 34635.4 hPa Calm     53 % 0 mm
21:46 -12.6 °C -17.6 °C 34635.4 hPa WSW 6 km/h 6 km/h 53 % 0 mm
21:51 -12.6 °C -17.6 °C 34669.3 hPa West 6 km/h   54 % 0 mm
21:56 -12.7 °C -17.6 °C 34669.3 hPa Calm     54 % 0 mm
22:01 -12.8 °C -17.7 °C 34669.3 hPa Calm     54 % 0 mm
22:11 -12.8 °C -17.7 °C 34635.4 hPa Calm     54 % 0 mm
22:31 -12.9 °C -17.7 °C 34635.4 hPa Calm     55 % 0 mm
22:36 -12.9 °C -17.7 °C 34635.4 hPa Calm     55 % 0 mm
22:41 -13 °C -17.7 °C 34635.4 hPa Calm     55 % 0 mm
22:46 -13.1 °C -17.8 °C 34635.4 hPa Calm     55 % 0 mm
22:51 -13.1 °C -17.8 °C 34669.3 hPa Calm     55 % 0 mm
23:01 -13 °C -17.6 °C 34669.3 hPa Calm     56 % 0 mm
23:06 -13.1 °C -17.7 °C 34635.4 hPa Calm     56 % 0 mm
23:11 -13.1 °C -17.7 °C 34635.4 hPa Calm     56 % 0 mm
23:16 -13.2 °C -17.6 °C 34635.4 hPa NNE 4.2 km/h 4.2 km/h 57 % 0 mm
23:21 -13.3 °C -17.7 °C 34635.4 hPa NNE 3.1 km/h   57 % 0 mm
23:26 -13.4 °C -17.8 °C 34635.4 hPa WSW 6 km/h 6 km/h 57 % 0 mm
23:36 -13.6 °C -17.9 °C 34669.3 hPa WSW 4.2 km/h   58 % 0 mm
23:40 -14.4 °C -18.4 °C 34567.7 hPa NNW 2.6 km/h 5.1 km/h 60 % 0 mm
23:41 -13.7 °C -17.9 °C 34669.3 hPa Calm     58 % 0 mm
23:50 -14.4 °C -18.4 °C 34567.7 hPa NNW 2.6 km/h 5.1 km/h 60 % 0 mm
23:52 -13.8 °C -17.9 °C 34669.3 hPa Calm     59 % 0 mm
23:57 -13.8 °C -18 °C 34669.3 hPa Calm     59 % 0 mm
23:58 -13.8 °C -18.1 °C 34669.3 hPa Calm     58 % 0 mm
Meteo Sesrovires
Elogis d' Weather Underground - 1.25 mb

Guio original per  Jim McMurry - jmcmurry@mwt.net Adaptat per a la plantilla per  Wim van der Kuil - Leuven-Template.eu

Trobareu la nostra informacio del temps tambe a:

Weather Underground

AWEKAS